CDT,Max TemperatureF,Mean TemperatureF,Min TemperatureF,Max Dew PointF,MeanDew PointF,Min DewpointF,Max Humidity, Mean Humidity, Min Humidity, Max Sea Level PressureIn, Mean Sea Level PressureIn, Min Sea Level PressureIn, Max VisibilityMiles, Mean VisibilityMiles, Min VisibilityMiles, Max Wind SpeedMPH, Mean Wind SpeedMPH, Max Gust SpeedMPH,PrecipitationIn, CloudCover, Events, WindDirDegrees
2013-6-1,89,78,64,68,50,41,83,42,19,30.04,29.87,29.59,10,10,10,29,17,34,0.00,0,,17
2013-6-2,84,69,54,53,49,45,92,52,25,30.13,30.04,29.93,10,10,9,16,8,,0.00,0,,54
2013-6-3,95,78,62,56,54,50,75,43,25,29.98,29.87,29.70,10,10,10,25,14,34,0.00,1,,149
2013-6-4,98,82,66,70,66,57,100,58,33,29.81,29.75,29.68,10,10,10,26,18,33,0.02,1,Rain,125
2013-6-5,89,79,69,69,64,59,83,65,43,29.99,29.87,29.71,10,10,7,26,16,33,0.00,4,Rain,67
2013-6-6,83,73,64,66,60,54,100,74,37,30.01,29.95,29.88,10,10,6,23,15,30,0.09,5,Rain-Thunderstorm,30
2013-6-7,86,72,57,60,55,51,96,56,33,30.01,29.96,29.87,10,10,10,16,5,18,0.00,2,,130
2013-6-8,91,76,62,64,58,51,100,63,25,29.98,29.85,29.68,10,9,3,33,15,51,0.36,4,Rain-Thunderstorm,129
2013-6-9,94,78,62,66,59,47,100,59,21,29.97,29.90,29.83,10,6,1,28,11,33,0.19,2,Rain-Thunderstorm,114
2013-6-10,101,82,64,67,60,48,100,51,17,29.92,29.87,29.80,10,10,10,22,10,30,0.00,0,,182
2013-6-11,99,82,65,64,58,54,73,42,23,29.95,29.88,29.80,10,10,10,23,13,30,0.00,0,,173
2013-6-12,101,86,71,67,63,59,82,49,26,29.95,29.90,29.83,10,10,10,21,13,29,0.00,0,,184
2013-6-13,100,84,69,68,64,60,89,52,27,30.00,29.93,29.84,10,10,10,17,8,24,0.00,0,,158
2013-6-14,96,82,69,68,63,56,91,51,27,29.98,29.92,29.87,10,10,10,17,8,25,0.00,2,,184
2013-6-15,90,82,73,68,65,62,81,65,41,30.05,29.96,29.83,10,10,9,24,9,34,0.00,5,Rain,183
2013-6-16,99,82,67,72,67,63,100,60,32,30.03,29.91,29.80,10,10,10,24,8,31,0.00,2,,141
2013-6-17,90,78,66,69,66,62,100,77,38,30.03,29.94,29.81,10,8,0,34,16,48,0.29,5,Fog-Rain-Thunderstorm,17
2013-6-18,89,78,68,70,65,59,100,66,36,30.02,29.97,29.90,10,10,9,15,7,20,0.00,1,,101
2013-6-19,85,77,69,73,68,61,100,85,43,30.06,29.95,29.83,10,10,6,32,9,36,0.23,4,Rain-Thunderstorm,125
2013-6-20,97,82,68,71,67,63,93,63,34,29.97,29.90,29.82,10,10,10,28,15,34,0.00,0,,150
2013-6-21,97,84,73,70,66,62,76,53,33,29.98,29.91,29.84,10,10,10,23,13,30,0.00,1,,165
2013-6-22,97,85,73,65,62,60,68,46,30,29.92,29.85,29.75,10,10,10,29,16,38,0.00,0,,155
2013-6-23,99,86,73,65,60,54,73,46,22,29.89,29.82,29.75,10,10,10,32,16,39,0.00,1,Rain-Thunderstorm,159
2013-6-24,98,85,73,65,61,57,64,45,29,29.91,29.84,29.76,10,10,10,28,17,36,0.00,1,,165
2013-6-25,102,88,76,70,67,63,65,50,31,29.89,29.78,29.68,10,10,10,24,16,31,0.00,1,,170
2013-6-26,105,90,75,68,65,61,67,42,26,29.87,29.80,29.73,10,10,10,22,11,29,0.00,0,,154
2013-6-27,108,91,75,69,63,56,80,44,19,30.04,29.89,29.78,10,10,8,41,11,53,0.07,1,,150
2013-6-28,103,88,74,62,59,54,65,39,21,29.99,29.92,29.87,10,10,10,14,10,24,0.00,1,,60
2013-6-29,98,85,72,62,57,54,64,41,24,29.98,29.89,29.81,10,10,10,14,6,21,0.00,1,,45
2013-6-30,94,82,71,59,53,49,64,38,23,30.02,29.95,29.88,10,10,10,21,12,28,0.00,2,,24